createdAt,value
2017-07-07T00:00:23.447Z,85.95
2017-07-07T00:01:19.767Z,85.86
2017-07-07T00:02:17.132Z,85.83
2017-07-07T00:03:13.519Z,85.79
2017-07-07T00:04:09.867Z,85.70
2017-07-07T00:05:06.152Z,85.59
2017-07-07T00:06:02.599Z,85.56
2017-07-07T00:06:58.938Z,85.52
2017-07-07T00:07:55.341Z,85.54
2017-07-07T00:08:51.722Z,85.63
2017-07-07T00:09:48.129Z,85.72
2017-07-07T00:10:44.540Z,85.71
2017-07-07T00:11:40.898Z,85.74
2017-07-07T00:12:41.652Z,85.81
2017-07-07T00:13:38.092Z,85.90
2017-07-07T00:14:34.548Z,85.97
2017-07-07T00:15:30.965Z,86.03
2017-07-07T00:16:28.444Z,86.15
2017-07-07T00:17:25.148Z,86.18
2017-07-07T00:18:21.540Z,86.21
2017-07-07T00:19:17.888Z,86.27
2017-07-07T00:20:14.344Z,86.34
2017-07-07T00:21:10.791Z,86.38
2017-07-07T00:22:07.158Z,86.46
2017-07-07T00:23:04.487Z,86.50
2017-07-07T00:24:00.849Z,86.56
2017-07-07T00:24:57.291Z,86.62
2017-07-07T00:25:53.736Z,86.68
2017-07-07T00:26:50.111Z,86.70
2017-07-07T00:27:46.752Z,86.73
2017-07-07T00:28:43.163Z,86.79
2017-07-07T00:29:39.584Z,86.84
2017-07-07T00:30:35.991Z,86.88
2017-07-07T00:31:33.128Z,86.95
2017-07-07T00:32:29.547Z,87.02
2017-07-07T00:33:26.016Z,87.10
2017-07-07T00:34:22.495Z,87.17
2017-07-07T00:35:19.169Z,87.21
2017-07-07T00:36:15.854Z,87.27
2017-07-07T00:37:12.340Z,87.31
2017-07-07T00:38:08.772Z,87.39
2017-07-07T00:39:05.210Z,87.46
2017-07-07T00:40:01.837Z,87.51
2017-07-07T00:40:58.323Z,87.58
2017-07-07T00:41:54.719Z,87.62
2017-07-07T00:42:51.391Z,87.65
2017-07-07T00:43:47.852Z,87.71
2017-07-07T00:44:44.330Z,87.74
2017-07-07T00:45:40.796Z,87.79
2017-07-07T00:46:37.465Z,87.81
2017-07-07T00:47:33.912Z,87.86
2017-07-07T00:48:30.378Z,87.89
2017-07-07T00:49:26.860Z,87.92
2017-07-07T00:50:23.448Z,87.96
2017-07-07T00:51:19.968Z,87.99
2017-07-07T00:52:16.469Z,88.04
2017-07-07T00:53:13.123Z,88.05
2017-07-07T00:54:09.539Z,88.07
2017-07-07T00:55:05.906Z,88.09
2017-07-07T00:56:02.308Z,88.10
2017-07-07T00:56:58.777Z,88.13
2017-07-07T00:57:55.505Z,88.14
2017-07-07T00:58:51.943Z,88.16
2017-07-07T00:59:48.391Z,88.18
2017-07-07T01:00:44.845Z,88.20
2017-07-07T01:01:41.379Z,88.21
2017-07-07T01:02:37.696Z,88.27
2017-07-07T01:03:34.007Z,88.26
2017-07-07T01:04:32.133Z,88.28
2017-07-07T01:05:28.435Z,88.32
2017-07-07T01:06:26.731Z,88.34
2017-07-07T01:07:23.986Z,88.39
2017-07-07T01:08:20.402Z,88.39
2017-07-07T01:09:17.018Z,88.44
2017-07-07T01:10:15.283Z,88.50
2017-07-07T01:11:12.520Z,88.52
2017-07-07T01:12:08.895Z,88.53
2017-07-07T01:13:05.262Z,88.56
2017-07-07T01:14:01.674Z,88.55
2017-07-07T01:14:58.890Z,88.56
2017-07-07T01:17:00.479Z,88.54
2017-07-07T01:17:57.100Z,88.53
2017-07-07T01:18:53.528Z,88.49
2017-07-07T01:19:49.812Z,88.48
2017-07-07T01:21:51.131Z,88.46
2017-07-07T01:22:47.450Z,88.44
2017-07-07T01:23:43.746Z,88.43
2017-07-07T01:24:40.091Z,88.41
2017-07-07T01:25:37.335Z,88.40
2017-07-07T01:26:33.735Z,88.38
2017-07-07T01:27:30.184Z,88.37
2017-07-07T01:28:26.595Z,88.35
2017-07-07T01:29:22.974Z,88.33
2017-07-07T01:32:34.465Z,88.28
2017-07-07T01:33:30.843Z,88.27
2017-07-07T01:34:27.407Z,88.27
2017-07-07T01:35:23.807Z,88.25
2017-07-07T01:36:22.012Z,88.26
2017-07-07T01:37:18.986Z,88.27
2017-07-07T01:38:16.179Z,88.26
2017-07-07T01:39:12.510Z,88.25
2017-07-07T01:40:08.891Z,88.23
2017-07-07T01:41:06.439Z,88.22
2017-07-07T01:42:06.084Z,88.22
2017-07-07T01:44:07.059Z,88.21
2017-07-07T01:45:03.378Z,88.18
2017-07-07T01:45:59.743Z,88.14
2017-07-07T01:46:56.850Z,88.12
2017-07-07T01:47:54.983Z,88.10
2017-07-07T01:48:51.364Z,88.09
2017-07-07T01:49:52.357Z,88.05
2017-07-07T01:50:48.684Z,88.02
2017-07-07T01:51:46.893Z,87.98
2017-07-07T01:53:50.652Z,87.97
2017-07-07T01:55:56.319Z,87.95
2017-07-07T01:56:53.564Z,87.93
2017-07-07T01:57:49.967Z,87.91
2017-07-07T01:58:47.215Z,87.89
2017-07-07T01:59:45.535Z,87.85
2017-07-07T02:00:44.923Z,87.84
2017-07-07T02:01:41.244Z,87.83
2017-07-07T02:02:38.604Z,87.80
2017-07-07T02:03:34.908Z,87.78
2017-07-07T02:06:44.208Z,87.72
2017-07-07T02:07:41.660Z,87.71
2017-07-07T02:08:38.920Z,87.70
2017-07-07T02:09:35.315Z,87.71
2017-07-07T02:10:31.687Z,87.81
2017-07-07T02:14:56.652Z,87.87
2017-07-07T02:15:56.047Z,87.96
2017-07-07T02:18:00.423Z,88.11
2017-07-07T02:18:56.836Z,88.28
2017-07-07T02:19:53.165Z,88.23
2017-07-07T02:20:49.503Z,88.22
2017-07-07T02:21:45.893Z,88.23
2017-07-07T02:22:43.023Z,88.24
2017-07-07T02:23:39.379Z,88.49
2017-07-07T02:24:37.720Z,88.17
2017-07-07T02:25:34.051Z,87.43
2017-07-07T02:26:31.248Z,86.61
2017-07-07T02:27:27.548Z,86.00
2017-07-07T02:28:23.865Z,85.45
2017-07-07T02:29:20.230Z,85.01
2017-07-07T02:30:16.656Z,84.64
2017-07-07T02:31:13.999Z,84.38
2017-07-07T02:32:11.159Z,84.10
2017-07-07T02:33:07.482Z,83.87
2017-07-07T02:34:03.799Z,83.64
2017-07-07T02:35:00.991Z,83.50
2017-07-07T02:35:57.601Z,83.35
2017-07-07T02:36:54.005Z,83.19
2017-07-07T02:37:50.447Z,83.06
2017-07-07T02:38:46.816Z,82.95
2017-07-07T02:39:43.210Z,82.84
2017-07-07T02:40:39.527Z,82.74
2017-07-07T02:41:35.874Z,82.63
2017-07-07T02:42:32.231Z,82.56
2017-07-07T02:43:28.592Z,82.46
2017-07-07T02:44:24.910Z,82.44
2017-07-07T02:45:22.179Z,82.35
2017-07-07T02:46:18.773Z,82.30
2017-07-07T02:47:15.234Z,82.24
2017-07-07T02:48:12.608Z,82.19
2017-07-07T02:49:09.025Z,82.15
2017-07-07T02:50:05.480Z,82.14
2017-07-07T02:51:02.248Z,82.12
2017-07-07T02:51:58.543Z,82.10
2017-07-07T02:52:54.826Z,82.08
2017-07-07T02:53:51.183Z,82.04
2017-07-07T02:54:47.615Z,81.98
2017-07-07T02:55:43.931Z,81.89
2017-07-07T02:56:40.231Z,81.83
2017-07-07T02:57:37.458Z,81.81
2017-07-07T02:58:33.739Z,81.81
2017-07-07T02:59:30.012Z,81.81
2017-07-07T03:00:26.370Z,81.80
2017-07-07T03:01:22.666Z,81.80
2017-07-07T03:02:18.978Z,81.80
2017-07-07T03:03:16.175Z,81.75
2017-07-07T03:04:13.336Z,81.72
2017-07-07T03:05:10.555Z,81.68
2017-07-07T03:06:07.842Z,81.69
2017-07-07T03:07:04.112Z,81.67
2017-07-07T03:08:00.662Z,81.67
2017-07-07T03:08:56.962Z,81.71
2017-07-07T03:09:54.251Z,81.68
2017-07-07T03:10:50.614Z,81.68
2017-07-07T03:11:47.776Z,81.66
2017-07-07T03:12:44.051Z,81.67
2017-07-07T03:13:41.201Z,81.69
2017-07-07T03:14:37.592Z,81.72
2017-07-07T03:15:34.910Z,81.73
2017-07-07T03:16:32.082Z,81.74
2017-07-07T03:17:28.427Z,81.75
2017-07-07T03:18:24.729Z,81.77
2017-07-07T03:19:21.027Z,81.81
2017-07-07T03:20:17.385Z,81.82
2017-07-07T03:21:13.692Z,81.83
2017-07-07T03:22:10.950Z,81.85
2017-07-07T03:23:07.268Z,81.89
2017-07-07T03:24:03.576Z,81.92
2017-07-07T03:25:01.064Z,81.96
2017-07-07T03:25:58.308Z,81.99
2017-07-07T03:26:54.676Z,82.00
2017-07-07T03:27:53.183Z,82.00
2017-07-07T03:28:49.547Z,82.03
2017-07-07T03:29:45.846Z,82.00
2017-07-07T03:30:42.172Z,81.96
2017-07-07T03:31:38.558Z,81.92
2017-07-07T03:32:34.872Z,81.89
2017-07-07T03:33:31.488Z,81.86
2017-07-07T03:34:29.613Z,81.87
2017-07-07T03:35:26.848Z,81.85
2017-07-07T03:36:23.227Z,81.83
2017-07-07T03:37:19.531Z,81.82
2017-07-07T03:38:15.812Z,81.79
2017-07-07T03:39:13.084Z,81.77
2017-07-07T03:40:09.440Z,81.73
2017-07-07T03:41:05.759Z,81.71
2017-07-07T03:42:03.071Z,81.69
2017-07-07T03:42:59.419Z,81.65
2017-07-07T03:43:56.624Z,81.64
2017-07-07T03:44:54.857Z,81.60
2017-07-07T03:45:51.162Z,81.59
2017-07-07T03:46:47.483Z,81.62
2017-07-07T03:47:44.687Z,81.63
2017-07-07T03:48:41.850Z,81.61
2017-07-07T03:49:39.013Z,81.57
2017-07-07T03:50:36.387Z,81.60
2017-07-07T03:51:32.767Z,81.63
2017-07-07T03:52:29.170Z,81.63
2017-07-07T03:54:36.332Z,81.67
2017-07-07T03:55:32.658Z,81.64
2017-07-07T03:56:28.995Z,81.65
2017-07-07T03:57:25.271Z,81.66
2017-07-07T03:58:22.496Z,81.64
2017-07-07T03:59:18.920Z,81.68
2017-07-07T04:00:17.207Z,81.68
2017-07-07T04:01:13.651Z,81.71
2017-07-07T04:02:09.966Z,81.73
2017-07-07T04:03:07.058Z,81.76
2017-07-07T04:04:04.424Z,81.81
2017-07-07T04:05:01.563Z,81.84
2017-07-07T04:07:01.235Z,81.92
2017-07-07T04:07:57.553Z,81.99
2017-07-07T04:08:53.847Z,82.05
2017-07-07T04:09:50.217Z,82.12
2017-07-07T04:10:46.537Z,82.21
2017-07-07T04:11:42.874Z,82.25
2017-07-07T04:12:39.190Z,82.28
2017-07-07T04:13:35.536Z,82.28
2017-07-07T04:14:31.824Z,82.25
2017-07-07T04:15:28.164Z,82.28
2017-07-07T04:16:24.436Z,82.28
2017-07-07T04:17:20.851Z,82.31
2017-07-07T04:18:17.275Z,82.34
2017-07-07T04:19:13.696Z,82.38
2017-07-07T04:20:11.064Z,82.39
2017-07-07T04:21:07.374Z,82.39
2017-07-07T04:22:03.677Z,82.45
2017-07-07T04:23:00.066Z,82.44
2017-07-07T04:23:56.403Z,82.46
2017-07-07T04:24:52.730Z,82.49
2017-07-07T04:25:49.107Z,82.50
2017-07-07T04:26:47.311Z,82.53
2017-07-07T04:27:43.686Z,82.55
2017-07-07T04:28:40.023Z,82.58
2017-07-07T04:29:37.583Z,82.60
2017-07-07T04:30:33.979Z,82.63
2017-07-07T04:31:30.256Z,82.64
2017-07-07T04:32:30.537Z,82.67
2017-07-07T04:33:28.968Z,82.66
2017-07-07T04:34:25.319Z,82.59
2017-07-07T04:35:21.647Z,82.65
2017-07-07T04:36:18.864Z,82.75
2017-07-07T04:37:15.287Z,82.79
2017-07-07T04:38:11.728Z,82.74
2017-07-07T04:39:09.080Z,82.79
2017-07-07T04:40:05.415Z,82.76
2017-07-07T04:41:02.050Z,82.80
2017-07-07T04:41:58.391Z,82.81
2017-07-07T04:42:55.663Z,82.86
2017-07-07T04:43:52.000Z,82.90
2017-07-07T04:44:48.326Z,82.96
2017-07-07T04:45:44.639Z,83.01
2017-07-07T04:46:41.891Z,83.01
2017-07-07T04:47:38.991Z,83.00
2017-07-07T04:48:35.287Z,83.00
2017-07-07T04:49:31.598Z,83.04
2017-07-07T04:50:29.847Z,83.07
2017-07-07T04:51:26.463Z,83.15
2017-07-07T04:52:22.834Z,83.14
2017-07-07T04:53:19.254Z,83.16
2017-07-07T04:54:15.864Z,83.15
2017-07-07T04:55:12.167Z,83.20
2017-07-07T04:56:08.527Z,83.16
2017-07-07T04:57:05.669Z,83.14
2017-07-07T04:58:02.016Z,83.12
2017-07-07T04:58:58.231Z,83.16
2017-07-07T04:59:55.540Z,83.13
2017-07-07T05:00:51.891Z,83.18
2017-07-07T05:01:48.208Z,83.17
2017-07-07T05:02:46.553Z,83.17
2017-07-07T05:03:42.859Z,83.19
2017-07-07T05:04:39.987Z,83.15
2017-07-07T05:05:36.279Z,83.18
2017-07-07T05:06:32.547Z,83.17
2017-07-07T05:07:28.847Z,83.17
2017-07-07T05:08:26.099Z,83.18
2017-07-07T05:09:22.440Z,83.18
2017-07-07T05:10:18.743Z,83.21
2017-07-07T05:11:15.072Z,83.26
2017-07-07T05:12:11.367Z,83.27
2017-07-07T05:13:07.713Z,83.30
2017-07-07T05:14:03.979Z,83.29
2017-07-07T05:15:01.051Z,83.21
2017-07-07T05:15:59.360Z,83.19
2017-07-07T05:16:55.711Z,83.22
2017-07-07T05:17:52.012Z,83.24
2017-07-07T05:18:48.291Z,83.30
2017-07-07T05:19:44.595Z,83.36
2017-07-07T05:20:40.887Z,83.34
2017-07-07T05:21:37.179Z,83.32
2017-07-07T05:22:34.358Z,83.37
2017-07-07T05:23:30.746Z,83.41
2017-07-07T05:24:27.055Z,83.44
2017-07-07T05:25:23.346Z,83.46
2017-07-07T05:26:19.623Z,83.45
2017-07-07T05:27:15.895Z,83.41
2017-07-07T05:28:13.083Z,83.37
2017-07-07T05:29:09.394Z,83.34
2017-07-07T05:30:07.598Z,83.30
2017-07-07T05:31:03.884Z,83.21
2017-07-07T05:32:00.287Z,83.18
2017-07-07T05:32:57.307Z,83.17
2017-07-07T05:33:53.614Z,83.18
2017-07-07T05:34:49.943Z,83.13
2017-07-07T05:35:46.219Z,83.14
2017-07-07T05:36:42.474Z,83.13
2017-07-07T05:37:39.807Z,83.10
2017-07-07T05:38:37.068Z,83.13
2017-07-07T05:39:34.288Z,83.12
2017-07-07T05:40:30.699Z,83.12
2017-07-07T05:41:27.042Z,83.15
2017-07-07T05:42:23.344Z,83.19
2017-07-07T05:43:20.569Z,83.21
2017-07-07T05:44:16.863Z,83.24
2017-07-07T05:45:13.190Z,83.26
2017-07-07T05:46:09.527Z,83.31
2017-07-07T05:47:05.839Z,83.27
2017-07-07T05:48:02.133Z,83.27
2017-07-07T05:48:58.453Z,83.23
2017-07-07T05:49:54.767Z,83.21
2017-07-07T05:50:51.147Z,83.31
2017-07-07T05:51:48.345Z,83.21
2017-07-07T05:52:44.728Z,83.14
2017-07-07T05:53:42.987Z,83.16
2017-07-07T05:54:39.291Z,83.13
2017-07-07T05:55:35.579Z,83.17
2017-07-07T05:56:31.900Z,83.18
2017-07-07T05:57:30.036Z,83.11
2017-07-07T05:58:26.403Z,83.12
2017-07-07T05:59:23.718Z,83.33
2017-07-07T06:00:20.051Z,83.50
2017-07-07T06:01:16.359Z,83.68
2017-07-07T06:02:12.690Z,83.93
2017-07-07T06:03:08.983Z,84.08
2017-07-07T06:05:45.335Z,84.39
2017-07-07T06:06:41.720Z,84.55
2017-07-07T06:07:38.112Z,84.67
2017-07-07T06:08:34.422Z,84.76
2017-07-07T06:09:30.720Z,84.87
2017-07-07T06:10:27.041Z,84.99
2017-07-07T06:11:23.381Z,85.12
2017-07-07T06:12:19.716Z,85.36
2017-07-07T06:13:17.003Z,85.44
2017-07-07T06:14:13.332Z,85.50
2017-07-07T06:15:09.716Z,85.57
2017-07-07T06:16:06.044Z,85.63
2017-07-07T06:17:02.374Z,85.70
2017-07-07T06:17:58.757Z,85.74
2017-07-07T06:18:55.121Z,85.77
2017-07-07T06:19:51.529Z,85.79
2017-07-07T06:20:47.873Z,85.85
2017-07-07T06:21:44.257Z,85.89
2017-07-07T06:22:40.572Z,85.95
2017-07-07T06:23:36.892Z,86.02
2017-07-07T06:24:33.206Z,86.10
2017-07-07T06:25:29.559Z,86.15
2017-07-07T06:26:25.885Z,86.27
2017-07-07T06:27:22.255Z,86.36
2017-07-07T06:28:18.568Z,86.46
2017-07-07T06:29:14.968Z,86.57
2017-07-07T06:30:11.297Z,86.67
2017-07-07T06:31:08.420Z,86.68
2017-07-07T06:32:04.772Z,86.76
2017-07-07T06:33:01.097Z,86.88
2017-07-07T06:33:57.456Z,86.86
2017-07-07T06:34:53.744Z,86.93
2017-07-07T06:35:50.100Z,86.91
2017-07-07T06:36:46.412Z,86.93
2017-07-07T06:37:42.717Z,86.91
2017-07-07T06:38:39.127Z,86.91
2017-07-07T06:39:35.492Z,86.96
2017-07-07T06:40:31.901Z,86.98
2017-07-07T06:41:28.225Z,86.98
2017-07-07T06:42:24.517Z,86.98
2017-07-07T06:43:20.860Z,87.00
2017-07-07T06:44:17.180Z,87.01
2017-07-07T06:45:13.532Z,87.01
2017-07-07T06:46:09.844Z,86.93
2017-07-07T06:47:06.202Z,86.86
2017-07-07T06:48:04.035Z,86.85
2017-07-07T06:49:00.351Z,86.83
2017-07-07T06:49:56.741Z,86.83
2017-07-07T06:50:55.933Z,86.83
2017-07-07T06:51:52.324Z,86.89
2017-07-07T06:52:48.627Z,86.86
2017-07-07T06:53:45.034Z,86.90
2017-07-07T06:54:41.416Z,86.95
2017-07-07T06:55:37.716Z,87.00
2017-07-07T06:56:34.102Z,87.07
2017-07-07T06:57:30.528Z,87.06
2017-07-07T06:58:26.859Z,87.10
2017-07-07T06:59:23.221Z,87.13
2017-07-07T07:00:20.382Z,87.18
2017-07-07T07:01:16.712Z,87.19
2017-07-07T07:02:14.009Z,87.16
2017-07-07T07:03:10.342Z,87.14
2017-07-07T07:04:07.549Z,87.19
2017-07-07T07:05:03.921Z,87.14
2017-07-07T07:06:00.239Z,87.10
2017-07-07T07:06:56.597Z,87.10
2017-07-07T07:07:52.924Z,87.12
2017-07-07T07:08:49.303Z,87.16
2017-07-07T07:09:45.632Z,87.18
2017-07-07T07:10:41.990Z,87.21
2017-07-07T07:11:38.396Z,87.21
2017-07-07T07:12:35.594Z,87.17
2017-07-07T07:13:32.809Z,87.11
2017-07-07T07:14:29.152Z,87.10
2017-07-07T07:15:25.472Z,87.12
2017-07-07T07:16:21.851Z,87.11
2017-07-07T07:17:18.183Z,87.03
2017-07-07T07:18:14.554Z,86.94
2017-07-07T07:19:10.880Z,86.90
2017-07-07T07:20:07.260Z,86.86
2017-07-07T07:21:03.633Z,86.86
2017-07-07T07:22:00.952Z,86.84
2017-07-07T07:22:57.340Z,86.85
2017-07-07T07:23:53.628Z,86.81
2017-07-07T07:24:50.031Z,86.72
2017-07-07T07:25:46.433Z,86.62
2017-07-07T07:26:42.768Z,86.53
2017-07-07T07:27:39.096Z,86.46
2017-07-07T07:28:35.471Z,86.28
2017-07-07T07:29:31.803Z,86.15
2017-07-07T07:30:28.156Z,86.08
2017-07-07T07:31:25.531Z,85.99
2017-07-07T07:32:21.859Z,85.86
2017-07-07T07:33:18.195Z,85.78
2017-07-07T07:34:14.567Z,85.72
2017-07-07T07:35:10.880Z,85.68
2017-07-07T07:36:07.224Z,85.64
2017-07-07T07:37:03.596Z,85.60
2017-07-07T07:37:59.934Z,85.55
2017-07-07T07:38:56.264Z,85.52
2017-07-07T07:39:52.601Z,85.54
2017-07-07T07:40:48.940Z,85.54
2017-07-07T07:41:46.179Z,85.49
2017-07-07T07:42:42.521Z,85.43
2017-07-07T07:43:38.861Z,85.33
2017-07-07T07:44:35.206Z,85.24
2017-07-07T07:45:31.520Z,85.11
2017-07-07T07:46:27.850Z,85.01
2017-07-07T07:47:24.152Z,84.99
2017-07-07T07:48:20.480Z,85.03
2017-07-07T07:49:16.824Z,85.03
2017-07-07T07:50:13.131Z,85.10
2017-07-07T07:51:09.538Z,85.10
2017-07-07T07:52:05.888Z,85.06
2017-07-07T07:53:02.190Z,84.94
2017-07-07T07:53:58.556Z,84.87
2017-07-07T07:54:54.913Z,84.89
2017-07-07T07:55:51.263Z,84.88
2017-07-07T07:56:47.635Z,84.93
2017-07-07T07:57:43.986Z,84.97
2017-07-07T07:58:40.292Z,84.98
2017-07-07T07:59:36.636Z,84.99
2017-07-07T08:00:32.950Z,84.99
2017-07-07T08:01:29.248Z,85.01
2017-07-07T08:02:25.596Z,85.02
2017-07-07T08:03:21.933Z,85.06
2017-07-07T08:04:18.249Z,85.05
2017-07-07T08:05:14.552Z,85.15
2017-07-07T08:06:10.847Z,85.10
2017-07-07T08:07:07.207Z,85.02
2017-07-07T08:08:03.590Z,84.92
2017-07-07T08:08:59.963Z,84.82
2017-07-07T08:09:56.280Z,84.75
2017-07-07T08:10:52.607Z,84.64
2017-07-07T08:11:48.968Z,84.52
2017-07-07T08:12:45.321Z,84.41
2017-07-07T08:13:41.608Z,84.31
2017-07-07T08:14:37.940Z,84.32
2017-07-07T08:15:34.244Z,84.37
2017-07-07T08:16:30.607Z,84.33
2017-07-07T08:17:26.900Z,84.27
2017-07-07T08:18:24.121Z,84.21
2017-07-07T08:19:20.439Z,84.17
2017-07-07T08:20:16.756Z,84.22
2017-07-07T08:21:13.140Z,84.14
2017-07-07T08:22:09.499Z,84.15
2017-07-07T08:23:05.799Z,84.10
2017-07-07T08:24:02.171Z,84.05
2017-07-07T08:24:58.543Z,84.09
2017-07-07T08:25:55.627Z,83.99
2017-07-07T08:26:51.954Z,83.90
2017-07-07T08:27:48.300Z,83.85
2017-07-07T08:28:44.652Z,83.76
2017-07-07T08:29:40.972Z,83.69
2017-07-07T08:30:37.307Z,83.75
2017-07-07T08:31:33.967Z,83.73
2017-07-07T08:32:30.312Z,83.79
2017-07-07T08:33:26.674Z,83.91
2017-07-07T08:34:23.061Z,83.78
2017-07-07T08:35:19.404Z,83.71
2017-07-07T08:36:15.747Z,83.68
2017-07-07T08:37:12.099Z,83.61
2017-07-07T08:38:08.440Z,83.48
2017-07-07T08:39:04.741Z,83.43
2017-07-07T08:40:01.147Z,83.39
2017-07-07T08:40:57.435Z,83.34
2017-07-07T08:41:53.757Z,83.28
2017-07-07T08:42:50.059Z,83.16
2017-07-07T08:43:46.381Z,82.95
2017-07-07T08:44:42.684Z,82.82
2017-07-07T08:45:39.266Z,82.77
2017-07-07T08:46:35.652Z,82.77
2017-07-07T08:47:32.332Z,82.90
2017-07-07T08:48:29.557Z,82.74
2017-07-07T08:49:25.863Z,82.79
2017-07-07T08:50:22.302Z,82.80
2017-07-07T08:51:18.604Z,82.75
2017-07-07T08:52:14.927Z,82.70
2017-07-07T08:53:11.292Z,82.70
2017-07-07T08:54:07.609Z,82.80
2017-07-07T08:55:03.928Z,82.90
2017-07-07T08:56:00.253Z,83.08
2017-07-07T08:56:56.616Z,83.07
2017-07-07T08:57:52.954Z,83.09
2017-07-07T08:58:49.283Z,82.97
2017-07-07T08:59:45.717Z,82.79
2017-07-07T09:00:41.992Z,82.47
2017-07-07T09:01:38.348Z,82.30
2017-07-07T09:02:34.655Z,82.16
2017-07-07T09:03:30.990Z,82.06
2017-07-07T09:04:27.340Z,81.91
2017-07-07T09:05:23.672Z,81.94
2017-07-07T09:06:20.017Z,82.07
2017-07-07T09:07:17.291Z,81.90
2017-07-07T09:08:14.530Z,81.96
2017-07-07T09:09:10.876Z,81.78
2017-07-07T09:10:07.199Z,81.76
2017-07-07T09:11:03.499Z,81.86
2017-07-07T09:11:59.849Z,81.99
2017-07-07T09:12:56.237Z,82.03
2017-07-07T09:13:52.584Z,81.90
2017-07-07T09:14:48.900Z,81.94
2017-07-07T09:15:45.221Z,81.63
2017-07-07T09:16:41.553Z,81.42
2017-07-07T09:17:37.873Z,81.21
2017-07-07T09:18:34.220Z,80.89
2017-07-07T09:19:30.556Z,80.21
2017-07-07T09:20:26.884Z,80.03
2017-07-07T09:21:23.224Z,79.47
2017-07-07T09:22:19.575Z,79.20
2017-07-07T09:23:15.895Z,78.70
2017-07-07T09:24:12.208Z,78.49
2017-07-07T09:25:08.522Z,78.47
2017-07-07T09:26:04.893Z,78.54
2017-07-07T09:27:01.188Z,78.54
2017-07-07T09:27:57.529Z,78.51
2017-07-07T09:28:53.860Z,78.26
2017-07-07T09:29:50.204Z,78.17
2017-07-07T09:30:46.533Z,77.16
2017-07-07T09:31:42.880Z,76.84
2017-07-07T09:32:39.184Z,76.68
2017-07-07T09:33:35.526Z,76.58
2017-07-07T09:34:31.869Z,76.18
2017-07-07T09:35:28.261Z,75.77
2017-07-07T09:36:24.535Z,75.76
2017-07-07T09:37:20.836Z,75.82
2017-07-07T09:38:17.148Z,75.17
2017-07-07T09:39:13.432Z,74.89
2017-07-07T09:40:09.708Z,74.55
2017-07-07T09:41:05.999Z,74.13
2017-07-07T09:42:02.304Z,73.03
2017-07-07T09:42:58.586Z,72.39
2017-07-07T09:43:54.864Z,72.14
2017-07-07T09:44:51.152Z,71.64
2017-07-07T09:45:47.456Z,70.94
2017-07-07T09:46:43.746Z,70.60
2017-07-07T09:47:40.017Z,70.14
2017-07-07T09:48:36.308Z,69.58
2017-07-07T09:49:32.595Z,69.13
2017-07-07T09:50:28.871Z,69.02
2017-07-07T09:51:25.142Z,69.14
2017-07-07T09:52:21.440Z,69.20
2017-07-07T09:53:17.728Z,69.31
2017-07-07T09:54:14.001Z,69.09
2017-07-07T09:55:10.311Z,68.78
2017-07-07T09:56:06.640Z,68.77
2017-07-07T09:57:02.899Z,68.67
2017-07-07T09:57:59.175Z,68.32
2017-07-07T09:58:55.439Z,68.16
2017-07-07T09:59:51.714Z,68.06
2017-07-07T10:00:48.026Z,67.80
2017-07-07T10:01:44.335Z,66.93
2017-07-07T10:02:40.621Z,66.81
2017-07-07T10:03:36.923Z,66.68
2017-07-07T10:04:33.183Z,66.26
2017-07-07T10:05:29.481Z,65.88
2017-07-07T10:06:25.762Z,65.81
2017-07-07T10:07:22.042Z,65.50
2017-07-07T10:08:18.329Z,65.36
2017-07-07T10:09:14.623Z,65.55
2017-07-07T10:10:10.903Z,65.34
2017-07-07T10:11:07.218Z,65.10
2017-07-07T10:12:03.491Z,64.81
2017-07-07T10:12:59.768Z,64.61
2017-07-07T10:13:56.056Z,64.22
2017-07-07T10:14:52.339Z,63.95
2017-07-07T10:15:48.639Z,63.69
2017-07-07T10:16:44.915Z,63.39
2017-07-07T10:17:41.208Z,63.55
2017-07-07T10:18:37.482Z,63.84
2017-07-07T10:19:33.754Z,64.03
2017-07-07T10:20:30.020Z,64.21
2017-07-07T10:21:26.311Z,64.18
2017-07-07T10:22:22.603Z,64.10
2017-07-07T10:23:18.899Z,63.42
2017-07-07T10:24:15.164Z,63.53
2017-07-07T10:25:11.434Z,63.30
2017-07-07T10:26:07.704Z,63.64
2017-07-07T10:27:04.001Z,63.70
2017-07-07T10:28:00.276Z,63.69
2017-07-07T10:28:57.201Z,63.53
2017-07-07T10:29:53.476Z,62.90
2017-07-07T10:30:49.743Z,62.48
2017-07-07T10:31:46.027Z,62.47
2017-07-07T10:32:42.315Z,62.61
2017-07-07T10:33:38.604Z,62.83
2017-07-07T10:34:34.882Z,63.16
2017-07-07T10:35:31.172Z,63.18
2017-07-07T10:36:27.528Z,62.67
2017-07-07T10:37:23.856Z,62.36
2017-07-07T10:38:20.136Z,62.27
2017-07-07T10:39:16.432Z,61.97
2017-07-07T10:40:12.736Z,62.04
2017-07-07T10:41:09.047Z,61.99
2017-07-07T10:42:05.379Z,62.31
2017-07-07T10:43:01.725Z,62.31
2017-07-07T10:43:58.053Z,62.29
2017-07-07T10:44:54.363Z,62.19
2017-07-07T10:45:50.659Z,62.04
2017-07-07T10:46:46.976Z,62.23
2017-07-07T10:47:43.333Z,62.50
2017-07-07T10:48:39.635Z,62.57
2017-07-07T10:49:35.930Z,61.95
2017-07-07T10:50:32.279Z,61.92
2017-07-07T10:51:28.600Z,61.56
2017-07-07T10:52:24.949Z,61.17
2017-07-07T10:53:21.319Z,61.07
2017-07-07T10:54:17.648Z,61.24
2017-07-07T10:55:13.964Z,61.63
2017-07-07T10:56:10.285Z,61.92
2017-07-07T10:57:06.585Z,62.00
2017-07-07T10:58:02.888Z,61.81
2017-07-07T10:58:59.240Z,61.63
2017-07-07T10:59:55.543Z,61.23
2017-07-07T11:00:51.825Z,60.82
2017-07-07T11:01:48.139Z,60.64
2017-07-07T11:02:44.443Z,60.22
2017-07-07T11:03:40.736Z,59.87
2017-07-07T11:04:37.043Z,59.80
2017-07-07T11:05:33.344Z,60.06
2017-07-07T11:06:29.626Z,60.04
2017-07-07T11:07:25.899Z,60.07
2017-07-07T11:08:22.175Z,59.85
2017-07-07T11:09:18.499Z,59.63
2017-07-07T11:10:14.783Z,58.98
2017-07-07T11:11:11.069Z,59.17
2017-07-07T11:12:07.401Z,59.55
2017-07-07T11:13:03.616Z,60.06
2017-07-07T11:13:59.904Z,59.96
2017-07-07T11:14:56.174Z,59.71
2017-07-07T11:15:52.464Z,59.10
2017-07-07T11:16:48.752Z,58.71
2017-07-07T11:17:45.032Z,58.95
2017-07-07T11:18:41.328Z,59.22
2017-07-07T11:19:37.630Z,59.30
2017-07-07T11:20:33.922Z,59.41
2017-07-07T11:21:30.212Z,59.36
2017-07-07T11:22:26.496Z,59.27
2017-07-07T11:23:22.767Z,58.77
2017-07-07T11:24:19.048Z,58.56
2017-07-07T11:25:15.363Z,58.60
2017-07-07T11:26:11.663Z,58.90
2017-07-07T11:27:07.926Z,59.06
2017-07-07T11:28:04.227Z,58.86
2017-07-07T11:29:00.513Z,58.44
2017-07-07T11:29:56.795Z,58.19
2017-07-07T11:30:53.103Z,58.13
2017-07-07T11:31:49.428Z,57.84
2017-07-07T11:32:45.723Z,57.44
2017-07-07T11:33:41.999Z,57.49
2017-07-07T11:34:38.280Z,57.69
2017-07-07T11:35:34.634Z,57.83
2017-07-07T11:36:30.869Z,57.80
2017-07-07T11:37:27.153Z,57.78
2017-07-07T11:38:23.424Z,57.47
2017-07-07T11:39:19.719Z,56.88
2017-07-07T11:40:16.011Z,56.70
2017-07-07T11:41:12.297Z,56.91
2017-07-07T11:42:08.571Z,56.56
2017-07-07T11:43:04.857Z,56.45
2017-07-07T11:44:01.143Z,56.30
2017-07-07T11:44:57.456Z,56.18
2017-07-07T11:45:53.764Z,56.32
2017-07-07T11:46:50.104Z,56.45
2017-07-07T11:47:46.456Z,56.50
2017-07-07T11:48:42.801Z,56.27
2017-07-07T11:49:39.130Z,56.22
2017-07-07T11:50:35.482Z,56.20
2017-07-07T11:51:31.849Z,55.67
2017-07-07T11:52:28.161Z,55.40
2017-07-07T11:53:24.461Z,55.45
2017-07-07T11:54:20.731Z,55.76
2017-07-07T11:55:17.026Z,55.70
2017-07-07T11:56:13.302Z,55.53
2017-07-07T11:57:09.612Z,55.69
2017-07-07T11:58:05.879Z,56.13
2017-07-07T11:59:02.163Z,55.79
2017-07-07T11:59:58.471Z,55.37
2017-07-07T12:00:54.751Z,54.71
2017-07-07T12:01:51.020Z,54.38
2017-07-07T12:02:47.320Z,54.10
2017-07-07T12:03:43.597Z,53.95
2017-07-07T12:04:39.911Z,54.46
2017-07-07T12:05:36.191Z,54.61
2017-07-07T12:06:32.471Z,54.49
2017-07-07T12:07:28.741Z,53.98
2017-07-07T12:08:25.035Z,53.97
2017-07-07T12:09:21.302Z,54.04
2017-07-07T12:10:17.579Z,54.22
2017-07-07T12:11:13.867Z,54.47
2017-07-07T12:12:10.180Z,54.78
2017-07-07T12:13:06.550Z,54.59
2017-07-07T12:14:02.864Z,54.05
2017-07-07T12:14:59.135Z,53.69
2017-07-07T12:15:55.403Z,53.20
2017-07-07T12:16:51.680Z,53.11
2017-07-07T12:17:47.969Z,53.42
2017-07-07T12:18:44.279Z,53.52
2017-07-07T12:19:40.568Z,53.66
2017-07-07T12:20:36.858Z,53.58
2017-07-07T12:21:33.155Z,53.20
2017-07-07T12:22:29.463Z,52.83
2017-07-07T12:23:25.722Z,52.29
2017-07-07T12:24:22.017Z,51.83
2017-07-07T12:25:19.127Z,51.99
2017-07-07T12:26:15.407Z,51.40